WAT5643 KATL-KAUS
Flight info
| Callsign | WAT5643 |
|---|---|
| Flight time | 2h 18m |
| Altitude | 34000 |
| Route | POUNC2 GRGIA GARTS LCH WEEED WLEEE7 |
| Aircraft | A21N/M-SDE3FGHIJ5RWY/LB1 |
Departure
| Time | 2026-05-05 18:30 |
|---|---|
| Airport | Hartsfield Jackson Atlanta International Airport (KATL) |
Arrival
| Time | 2026-05-05 20:49 |
|---|---|
| Airport | Austin Bergstrom International Airport (KAUS) |
| Time | Latitude | Longitude | Altitude | Speed | Heading |
|---|---|---|---|---|---|
| 2026-05-05 18:05 | 33.64252 | -84.42632 | 999 ft | 0 kts | 90° |
| 2026-05-05 18:18 | 33.64252 | -84.42637 | 999 ft | 2 kts | 90° |
| 2026-05-05 18:18 | 33.64252 | -84.42653 | 999 ft | 2 kts | 90° |
| 2026-05-05 18:18 | 33.64252 | -84.42669 | 1000 ft | 2 kts | 90° |
| 2026-05-05 18:19 | 33.64252 | -84.42687 | 1000 ft | 2 kts | 90° |
| 2026-05-05 18:19 | 33.64252 | -84.42705 | 1000 ft | 2 kts | 90° |
| 2026-05-05 18:19 | 33.64252 | -84.42722 | 1000 ft | 1 kts | 90° |
| 2026-05-05 18:19 | 33.64253 | -84.42731 | 1000 ft | 1 kts | 135° |
| 2026-05-05 18:20 | 33.64260 | -84.42735 | 1000 ft | 1 kts | 189° |
| 2026-05-05 18:20 | 33.64265 | -84.42734 | 1000 ft | 0 kts | 181° |
| 2026-05-05 18:22 | 33.64263 | -84.42734 | 1000 ft | 0 kts | 181° |
| 2026-05-05 18:22 | 33.64247 | -84.42734 | 1000 ft | 4 kts | 179° |
| 2026-05-05 18:23 | 33.64208 | -84.42733 | 1000 ft | 7 kts | 179° |
| 2026-05-05 18:23 | 33.64162 | -84.42733 | 1001 ft | 7 kts | 180° |
| 2026-05-05 18:23 | 33.64119 | -84.42733 | 1002 ft | 6 kts | 180° |
| 2026-05-05 18:23 | 33.64084 | -84.42733 | 1002 ft | 5 kts | 181° |
| 2026-05-05 18:24 | 33.64040 | -84.42733 | 1003 ft | 7 kts | 180° |
| 2026-05-05 18:24 | 33.63992 | -84.42733 | 1003 ft | 8 kts | 180° |
| 2026-05-05 18:24 | 33.63935 | -84.42733 | 1003 ft | 10 kts | 180° |
| 2026-05-05 18:24 | 33.63869 | -84.42733 | 1003 ft | 11 kts | 180° |
| 2026-05-05 18:25 | 33.63794 | -84.42733 | 1002 ft | 13 kts | 180° |
| 2026-05-05 18:25 | 33.63738 | -84.42733 | 1001 ft | 14 kts | 180° |
| 2026-05-05 18:25 | 33.63654 | -84.42667 | 1000 ft | 14 kts | 92° |
| 2026-05-05 18:25 | 33.63654 | -84.42556 | 998 ft | 15 kts | 91° |
| 2026-05-05 18:26 | 33.63655 | -84.42437 | 994 ft | 17 kts | 91° |
| 2026-05-05 18:26 | 33.63655 | -84.42280 | 988 ft | 20 kts | 90° |
| 2026-05-05 18:26 | 33.63654 | -84.42109 | 982 ft | 22 kts | 89° |
| 2026-05-05 18:26 | 33.63655 | -84.41933 | 974 ft | 25 kts | 91° |
| 2026-05-05 18:27 | 33.63655 | -84.41737 | 966 ft | 27 kts | 91° |
| 2026-05-05 18:27 | 33.63655 | -84.41551 | 963 ft | 22 kts | 90° |
| 2026-05-05 18:27 | 33.63655 | -84.41390 | 962 ft | 21 kts | 90° |
| 2026-05-05 18:27 | 33.63654 | -84.41238 | 962 ft | 20 kts | 90° |
| 2026-05-05 18:28 | 33.63655 | -84.40931 | 956 ft | 21 kts | 91° |
| 2026-05-05 18:28 | 33.63652 | -84.40792 | 951 ft | 14 kts | 99° |
| 2026-05-05 18:28 | 33.63578 | -84.40742 | 947 ft | 16 kts | 181° |
| 2026-05-05 18:29 | 33.63488 | -84.40745 | 947 ft | 9 kts | 194° |
| 2026-05-05 18:29 | 33.63473 | -84.40794 | 950 ft | 6 kts | 266° |
| 2026-05-05 18:29 | 33.63471 | -84.41025 | 959 ft | 63 kts | 269° |
| 2026-05-05 18:29 | 33.63467 | -84.41680 | 966 ft | 119 kts | 270° |
| 2026-05-05 18:30 | 33.63469 | -84.42712 | 1000 ft | 165 kts | 270° |
| 2026-05-05 18:30 | 33.63502 | -84.44031 | 1221 ft | 187 kts | 267° |
| 2026-05-05 18:30 | 33.63512 | -84.45431 | 1753 ft | 190 kts | 265° |
| 2026-05-05 18:30 | 33.63515 | -84.46809 | 2444 ft | 188 kts | 265° |
| 2026-05-05 18:31 | 33.63514 | -84.48202 | 3020 ft | 191 kts | 266° |
| 2026-05-05 18:31 | 33.63510 | -84.49644 | 3379 ft | 204 kts | 266° |
| 2026-05-05 18:31 | 33.63505 | -84.51219 | 3752 ft | 219 kts | 267° |
| 2026-05-05 18:31 | 33.63500 | -84.52902 | 4062 ft | 238 kts | 268° |
| 2026-05-05 18:32 | 33.63494 | -84.54761 | 4444 ft | 256 kts | 267° |
| 2026-05-05 18:32 | 33.63488 | -84.56717 | 4911 ft | 269 kts | 268° |
| 2026-05-05 18:32 | 33.63480 | -84.58714 | 5577 ft | 274 kts | 268° |
| 2026-05-05 18:32 | 33.63473 | -84.60749 | 6313 ft | 275 kts | 268° |
| 2026-05-05 18:33 | 33.63464 | -84.62788 | 7052 ft | 276 kts | 268° |
| 2026-05-05 18:33 | 33.63453 | -84.64832 | 7812 ft | 276 kts | 268° |
| 2026-05-05 18:33 | 33.63446 | -84.66846 | 8558 ft | 276 kts | 268° |
| 2026-05-05 18:33 | 33.63454 | -84.68891 | 9316 ft | 275 kts | 269° |
| 2026-05-05 18:34 | 33.63452 | -84.70918 | 10053 ft | 275 kts | 266° |
| 2026-05-05 18:34 | 33.63205 | -84.72958 | 10622 ft | 281 kts | 256° |
| 2026-05-05 18:34 | 33.62603 | -84.74968 | 10932 ft | 296 kts | 245° |
| 2026-05-05 18:34 | 33.61723 | -84.77013 | 11236 ft | 312 kts | 243° |
| 2026-05-05 18:35 | 33.60788 | -84.79083 | 11562 ft | 325 kts | 243° |
| 2026-05-05 18:35 | 33.59808 | -84.81241 | 12126 ft | 331 kts | 243° |
| 2026-05-05 18:35 | 33.58816 | -84.83434 | 12787 ft | 332 kts | 243° |
| 2026-05-05 18:35 | 33.57824 | -84.85638 | 13427 ft | 335 kts | 243° |
| 2026-05-05 18:36 | 33.56843 | -84.87821 | 14053 ft | 337 kts | 244° |
| 2026-05-05 18:36 | 33.55838 | -84.90058 | 14687 ft | 339 kts | 244° |
| 2026-05-05 18:36 | 33.54681 | -84.92641 | 15410 ft | 341 kts | 244° |
| 2026-05-05 18:36 | 33.53520 | -84.95233 | 16132 ft | 342 kts | 245° |
| 2026-05-05 18:37 | 33.52366 | -84.97811 | 16813 ft | 344 kts | 245° |
| 2026-05-05 18:37 | 33.51189 | -85.00443 | 17452 ft | 347 kts | 246° |
| 2026-05-05 18:37 | 33.50070 | -85.02948 | 18061 ft | 349 kts | 246° |
| 2026-05-05 18:37 | 33.48937 | -85.05480 | 18630 ft | 351 kts | 246° |
| 2026-05-05 18:38 | 33.47915 | -85.07766 | 19075 ft | 355 kts | 246° |
| 2026-05-05 18:38 | 33.46859 | -85.10118 | 19545 ft | 358 kts | 246° |
| 2026-05-05 18:38 | 33.45828 | -85.12415 | 20018 ft | 361 kts | 246° |
| 2026-05-05 18:38 | 33.44761 | -85.14793 | 20501 ft | 363 kts | 246° |
| 2026-05-05 18:39 | 33.43702 | -85.17149 | 20946 ft | 365 kts | 247° |
| 2026-05-05 18:39 | 33.42694 | -85.19593 | 21362 ft | 367 kts | 250° |
| 2026-05-05 18:39 | 33.41819 | -85.22081 | 21775 ft | 368 kts | 253° |
| 2026-05-05 18:39 | 33.41070 | -85.24637 | 22201 ft | 369 kts | 257° |
| 2026-05-05 18:40 | 33.40423 | -85.27206 | 22613 ft | 371 kts | 258° |
| 2026-05-05 18:40 | 33.39782 | -85.29803 | 23029 ft | 373 kts | 258° |
| 2026-05-05 18:40 | 33.39140 | -85.32423 | 23456 ft | 375 kts | 258° |
| 2026-05-05 18:40 | 33.38490 | -85.35062 | 23879 ft | 376 kts | 258° |
| 2026-05-05 18:41 | 33.37841 | -85.37698 | 24253 ft | 379 kts | 258° |
| 2026-05-05 18:41 | 33.37174 | -85.40400 | 24618 ft | 382 kts | 258° |
| 2026-05-05 18:41 | 33.36514 | -85.43069 | 24996 ft | 383 kts | 258° |
| 2026-05-05 18:41 | 33.35845 | -85.45766 | 25390 ft | 384 kts | 258° |
| 2026-05-05 18:42 | 33.35193 | -85.48391 | 25780 ft | 385 kts | 258° |
| 2026-05-05 18:42 | 33.34515 | -85.51112 | 26120 ft | 387 kts | 258° |
| 2026-05-05 18:42 | 33.33840 | -85.53831 | 26459 ft | 388 kts | 258° |
| 2026-05-05 18:42 | 33.33167 | -85.56526 | 26805 ft | 389 kts | 258° |
| 2026-05-05 18:43 | 33.32500 | -85.59199 | 27107 ft | 391 kts | 259° |
| 2026-05-05 18:43 | 33.31826 | -85.61900 | 27405 ft | 392 kts | 259° |
| 2026-05-05 18:43 | 33.31139 | -85.64662 | 27701 ft | 394 kts | 258° |
| 2026-05-05 18:43 | 33.30456 | -85.67387 | 27996 ft | 395 kts | 258° |
| 2026-05-05 18:44 | 33.29778 | -85.70092 | 28258 ft | 398 kts | 258° |
| 2026-05-05 18:44 | 33.29075 | -85.72897 | 28530 ft | 399 kts | 258° |
| 2026-05-05 18:44 | 33.28386 | -85.75648 | 28822 ft | 400 kts | 258° |
| 2026-05-05 18:44 | 33.27692 | -85.78407 | 29117 ft | 401 kts | 258° |
| 2026-05-05 18:45 | 33.27002 | -85.81152 | 29383 ft | 403 kts | 258° |
| 2026-05-05 18:45 | 33.26299 | -85.83942 | 29688 ft | 403 kts | 258° |
| 2026-05-05 18:45 | 33.25591 | -85.86726 | 30053 ft | 401 kts | 259° |
| 2026-05-05 18:45 | 33.24892 | -85.89482 | 30440 ft | 399 kts | 259° |
| 2026-05-05 18:46 | 33.24206 | -85.92190 | 30832 ft | 396 kts | 260° |
| 2026-05-05 18:46 | 33.23518 | -85.94904 | 31220 ft | 393 kts | 260° |
| 2026-05-05 18:46 | 33.22849 | -85.97546 | 31627 ft | 390 kts | 261° |
| 2026-05-05 18:46 | 33.22167 | -86.00221 | 32024 ft | 386 kts | 261° |
| 2026-05-05 18:47 | 33.21501 | -86.02854 | 32357 ft | 384 kts | 261° |
| 2026-05-05 18:47 | 33.20837 | -86.05466 | 32651 ft | 383 kts | 262° |
| 2026-05-05 18:47 | 33.20171 | -86.08099 | 32907 ft | 382 kts | 262° |
| 2026-05-05 18:47 | 33.19492 | -86.10779 | 33136 ft | 382 kts | 262° |
| 2026-05-05 18:48 | 33.18829 | -86.13382 | 33404 ft | 381 kts | 262° |
| 2026-05-05 18:48 | 33.18157 | -86.16032 | 33659 ft | 380 kts | 263° |
| 2026-05-05 18:48 | 33.17490 | -86.18660 | 33829 ft | 381 kts | 262° |
| 2026-05-05 18:48 | 33.16819 | -86.21304 | 33996 ft | 381 kts | 262° |
| 2026-05-05 18:49 | 33.15483 | -86.26533 | 34019 ft | 381 kts | 262° |
| 2026-05-05 18:49 | 33.14104 | -86.31918 | 34018 ft | 381 kts | 262° |
| 2026-05-05 18:50 | 33.12710 | -86.37345 | 34017 ft | 381 kts | 262° |
| 2026-05-05 18:50 | 33.11359 | -86.42590 | 34006 ft | 380 kts | 262° |
| 2026-05-05 18:51 | 33.09890 | -86.47888 | 34002 ft | 386 kts | 258° |
| 2026-05-05 18:51 | 33.07866 | -86.52976 | 33992 ft | 396 kts | 252° |
| 2026-05-05 18:52 | 33.05200 | -86.57838 | 33974 ft | 408 kts | 245° |
| 2026-05-05 18:52 | 33.01861 | -86.62367 | 33969 ft | 421 kts | 237° |
| 2026-05-05 18:53 | 32.97918 | -86.66502 | 33981 ft | 430 kts | 232° |
| 2026-05-05 18:53 | 32.93883 | -86.70501 | 33979 ft | 430 kts | 233° |
| 2026-05-05 18:54 | 32.89781 | -86.74567 | 33978 ft | 430 kts | 232° |
| 2026-05-05 18:54 | 32.85600 | -86.78711 | 33975 ft | 429 kts | 232° |
| 2026-05-05 18:55 | 32.81530 | -86.82736 | 33967 ft | 428 kts | 232° |
| 2026-05-05 18:55 | 32.77434 | -86.86792 | 33970 ft | 428 kts | 232° |
| 2026-05-05 18:56 | 32.73396 | -86.90781 | 33977 ft | 430 kts | 232° |
| 2026-05-05 18:56 | 32.69345 | -86.94783 | 33977 ft | 430 kts | 232° |
| 2026-05-05 18:57 | 32.65284 | -86.98789 | 33983 ft | 429 kts | 232° |
| 2026-05-05 18:57 | 32.61187 | -87.02821 | 33974 ft | 429 kts | 232° |
| 2026-05-05 18:58 | 32.57096 | -87.06848 | 33977 ft | 427 kts | 232° |
| 2026-05-05 18:58 | 32.53034 | -87.10838 | 33967 ft | 428 kts | 232° |
| 2026-05-05 18:59 | 32.48959 | -87.14839 | 33973 ft | 428 kts | 232° |
| 2026-05-05 18:59 | 32.44884 | -87.18834 | 33972 ft | 429 kts | 232° |
| 2026-05-05 19:00 | 32.40893 | -87.22740 | 33962 ft | 428 kts | 232° |
| 2026-05-05 19:00 | 32.36903 | -87.26640 | 33964 ft | 428 kts | 232° |
| 2026-05-05 19:01 | 32.32924 | -87.30525 | 33961 ft | 427 kts | 232° |
| 2026-05-05 19:01 | 32.28878 | -87.34473 | 33964 ft | 428 kts | 232° |
| 2026-05-05 19:02 | 32.24950 | -87.38300 | 33955 ft | 427 kts | 232° |
| 2026-05-05 19:02 | 32.20992 | -87.42154 | 33967 ft | 428 kts | 232° |
| 2026-05-05 19:03 | 32.17062 | -87.45972 | 33962 ft | 427 kts | 232° |
| 2026-05-05 19:03 | 32.13076 | -87.49844 | 33959 ft | 426 kts | 232° |
| 2026-05-05 19:04 | 32.09103 | -87.53696 | 33961 ft | 427 kts | 232° |
| 2026-05-05 19:04 | 32.05097 | -87.57576 | 33961 ft | 427 kts | 232° |
| 2026-05-05 19:05 | 32.01075 | -87.61467 | 33966 ft | 427 kts | 232° |
| 2026-05-05 19:05 | 31.97098 | -87.65308 | 33960 ft | 427 kts | 231° |
| 2026-05-05 19:06 | 31.93131 | -87.69141 | 33957 ft | 426 kts | 231° |
| 2026-05-05 19:06 | 31.89093 | -87.73039 | 33960 ft | 427 kts | 231° |
| 2026-05-05 19:07 | 31.85020 | -87.76960 | 33957 ft | 428 kts | 231° |
| 2026-05-05 19:07 | 31.81067 | -87.80763 | 33961 ft | 426 kts | 231° |
| 2026-05-05 19:08 | 31.77129 | -87.84546 | 33959 ft | 426 kts | 231° |
| 2026-05-05 19:08 | 31.73091 | -87.88420 | 33943 ft | 426 kts | 231° |
| 2026-05-05 19:09 | 31.69072 | -87.92273 | 33949 ft | 427 kts | 231° |
| 2026-05-05 19:09 | 31.65038 | -87.96139 | 33948 ft | 426 kts | 231° |
| 2026-05-05 19:10 | 31.60996 | -88.00002 | 33948 ft | 428 kts | 231° |
| 2026-05-05 19:10 | 31.56895 | -88.03923 | 33951 ft | 428 kts | 231° |
| 2026-05-05 19:11 | 31.52799 | -88.07828 | 33950 ft | 426 kts | 231° |
| 2026-05-05 19:11 | 31.48718 | -88.11718 | 33948 ft | 427 kts | 231° |
| 2026-05-05 19:12 | 31.44509 | -88.15729 | 33949 ft | 428 kts | 231° |
| 2026-05-05 19:12 | 31.40413 | -88.19622 | 33952 ft | 428 kts | 231° |
| 2026-05-05 19:13 | 31.36147 | -88.23673 | 33945 ft | 427 kts | 231° |
| 2026-05-05 19:13 | 31.31908 | -88.27696 | 33947 ft | 427 kts | 231° |
| 2026-05-05 19:14 | 31.27808 | -88.31583 | 33949 ft | 426 kts | 230° |
| 2026-05-05 19:14 | 31.23760 | -88.35413 | 33955 ft | 426 kts | 230° |
| 2026-05-05 19:15 | 31.19601 | -88.39346 | 33956 ft | 427 kts | 230° |
| 2026-05-05 19:15 | 31.15637 | -88.43307 | 33959 ft | 419 kts | 236° |
| 2026-05-05 19:16 | 31.12402 | -88.47720 | 33953 ft | 407 kts | 245° |
| 2026-05-05 19:16 | 31.09893 | -88.52627 | 33957 ft | 395 kts | 253° |
| 2026-05-05 19:17 | 31.08195 | -88.57636 | 33955 ft | 387 kts | 261° |
| 2026-05-05 19:17 | 31.07116 | -88.62736 | 33954 ft | 384 kts | 264° |
| 2026-05-05 19:18 | 31.06137 | -88.67902 | 33957 ft | 384 kts | 264° |
| 2026-05-05 19:18 | 31.05156 | -88.73106 | 33947 ft | 384 kts | 264° |
| 2026-05-05 19:19 | 31.04165 | -88.78337 | 33941 ft | 384 kts | 264° |
| 2026-05-05 19:19 | 31.03159 | -88.83621 | 33934 ft | 385 kts | 264° |
| 2026-05-05 19:20 | 31.02151 | -88.88924 | 33937 ft | 384 kts | 264° |
| 2026-05-05 19:20 | 31.01134 | -88.94247 | 33926 ft | 385 kts | 264° |
| 2026-05-05 19:21 | 31.00134 | -88.99469 | 33930 ft | 385 kts | 264° |
| 2026-05-05 19:21 | 30.99140 | -89.04648 | 33930 ft | 384 kts | 264° |
| 2026-05-05 19:22 | 30.98130 | -89.09892 | 33931 ft | 384 kts | 264° |
| 2026-05-05 19:22 | 30.97119 | -89.15143 | 33934 ft | 384 kts | 264° |
| 2026-05-05 19:23 | 30.96104 | -89.20394 | 33933 ft | 384 kts | 264° |
| 2026-05-05 19:23 | 30.95089 | -89.25651 | 33935 ft | 383 kts | 264° |
| 2026-05-05 19:24 | 30.94057 | -89.30964 | 33942 ft | 384 kts | 264° |
| 2026-05-05 19:24 | 30.93023 | -89.36273 | 33948 ft | 383 kts | 264° |
| 2026-05-05 19:25 | 30.91805 | -89.42518 | 33946 ft | 383 kts | 264° |
| 2026-05-05 19:25 | 30.90597 | -89.48690 | 33942 ft | 382 kts | 264° |
| 2026-05-05 19:26 | 30.89383 | -89.54892 | 33935 ft | 382 kts | 264° |
| 2026-05-05 19:26 | 30.88174 | -89.61035 | 33936 ft | 383 kts | 264° |
| 2026-05-05 19:27 | 30.86962 | -89.67179 | 33942 ft | 383 kts | 263° |
| 2026-05-05 19:27 | 30.85741 | -89.73360 | 33934 ft | 383 kts | 263° |
| 2026-05-05 19:28 | 30.84508 | -89.79578 | 33937 ft | 383 kts | 263° |
| 2026-05-05 19:28 | 30.83278 | -89.85766 | 33939 ft | 382 kts | 263° |
| 2026-05-05 19:29 | 30.82038 | -89.91997 | 33938 ft | 382 kts | 263° |
| 2026-05-05 19:29 | 30.80807 | -89.98151 | 33939 ft | 382 kts | 263° |
| 2026-05-05 19:30 | 30.79578 | -90.04298 | 33933 ft | 382 kts | 263° |
| 2026-05-05 19:30 | 30.78339 | -90.10467 | 33927 ft | 382 kts | 263° |
| 2026-05-05 19:31 | 30.77100 | -90.16615 | 33914 ft | 382 kts | 263° |
| 2026-05-05 19:31 | 30.75940 | -90.22360 | 33914 ft | 381 kts | 263° |
| 2026-05-05 19:32 | 30.74898 | -90.27515 | 33913 ft | 382 kts | 263° |
| 2026-05-05 19:32 | 30.73840 | -90.32739 | 33917 ft | 382 kts | 263° |
| 2026-05-05 19:33 | 30.72780 | -90.37953 | 33919 ft | 382 kts | 263° |
| 2026-05-05 19:33 | 30.71702 | -90.43246 | 33924 ft | 383 kts | 263° |
| 2026-05-05 19:34 | 30.70633 | -90.48492 | 33923 ft | 381 kts | 263° |
| 2026-05-05 19:35 | 30.69029 | -90.56323 | 33917 ft | 382 kts | 263° |
| 2026-05-05 19:35 | 30.67937 | -90.61652 | 33923 ft | 382 kts | 263° |
| 2026-05-05 19:36 | 30.66850 | -90.66927 | 33927 ft | 382 kts | 262° |
| 2026-05-05 19:36 | 30.65755 | -90.72234 | 33919 ft | 381 kts | 262° |
| 2026-05-05 19:37 | 30.64665 | -90.77512 | 33920 ft | 382 kts | 262° |
| 2026-05-05 19:37 | 30.63573 | -90.82780 | 33921 ft | 382 kts | 262° |
| 2026-05-05 19:38 | 30.62481 | -90.88038 | 33925 ft | 382 kts | 262° |
| 2026-05-05 19:38 | 30.61381 | -90.93351 | 33921 ft | 381 kts | 262° |
| 2026-05-05 19:39 | 30.60277 | -90.98638 | 33926 ft | 381 kts | 262° |
| 2026-05-05 19:39 | 30.59173 | -91.03921 | 33922 ft | 380 kts | 262° |
| 2026-05-05 19:40 | 30.57984 | -91.09605 | 33928 ft | 381 kts | 262° |
| 2026-05-05 19:40 | 30.56692 | -91.15770 | 33924 ft | 381 kts | 261° |
| 2026-05-05 19:41 | 30.55384 | -91.21976 | 33924 ft | 381 kts | 261° |
| 2026-05-05 19:41 | 30.54073 | -91.28184 | 33920 ft | 381 kts | 261° |
| 2026-05-05 19:42 | 30.52766 | -91.34373 | 33915 ft | 381 kts | 261° |
| 2026-05-05 19:42 | 30.51459 | -91.40531 | 33913 ft | 381 kts | 262° |
| 2026-05-05 19:43 | 30.50142 | -91.46737 | 33909 ft | 381 kts | 261° |
| 2026-05-05 19:43 | 30.48827 | -91.52911 | 33902 ft | 381 kts | 261° |
| 2026-05-05 19:44 | 30.47512 | -91.59071 | 33894 ft | 380 kts | 261° |
| 2026-05-05 19:44 | 30.46186 | -91.65262 | 33900 ft | 380 kts | 261° |
| 2026-05-05 19:45 | 30.44868 | -91.71401 | 33898 ft | 381 kts | 261° |
| 2026-05-05 19:45 | 30.43612 | -91.77241 | 33898 ft | 381 kts | 261° |
| 2026-05-05 19:46 | 30.42336 | -91.83164 | 33897 ft | 380 kts | 260° |
| 2026-05-05 19:46 | 30.41006 | -91.89314 | 33898 ft | 380 kts | 260° |
| 2026-05-05 19:47 | 30.39676 | -91.95450 | 33905 ft | 380 kts | 260° |
| 2026-05-05 19:47 | 30.38346 | -92.01577 | 33908 ft | 380 kts | 260° |
| 2026-05-05 19:48 | 30.37012 | -92.07700 | 33908 ft | 379 kts | 260° |
| 2026-05-05 19:48 | 30.35677 | -92.13820 | 33906 ft | 380 kts | 260° |
| 2026-05-05 19:49 | 30.34344 | -92.19913 | 33903 ft | 380 kts | 260° |
| 2026-05-05 19:49 | 30.32991 | -92.26079 | 33899 ft | 379 kts | 260° |
| 2026-05-05 19:50 | 30.31651 | -92.32182 | 33897 ft | 380 kts | 260° |
| 2026-05-05 19:50 | 30.30313 | -92.38259 | 33891 ft | 379 kts | 260° |
| 2026-05-05 19:51 | 30.28966 | -92.44355 | 33888 ft | 380 kts | 260° |
| 2026-05-05 19:51 | 30.27732 | -92.49934 | 33886 ft | 379 kts | 259° |
| 2026-05-05 19:52 | 30.26512 | -92.55424 | 33885 ft | 379 kts | 260° |
| 2026-05-05 19:52 | 30.25328 | -92.60758 | 33879 ft | 380 kts | 259° |
| 2026-05-05 19:53 | 30.24138 | -92.66103 | 33885 ft | 381 kts | 259° |
| 2026-05-05 19:53 | 30.22886 | -92.71708 | 33884 ft | 381 kts | 259° |
| 2026-05-05 19:54 | 30.21677 | -92.77123 | 33880 ft | 380 kts | 259° |
| 2026-05-05 19:54 | 30.20429 | -92.82684 | 33881 ft | 380 kts | 259° |
| 2026-05-05 19:55 | 30.19175 | -92.88268 | 33888 ft | 381 kts | 259° |
| 2026-05-05 19:55 | 30.17905 | -92.93905 | 33893 ft | 381 kts | 259° |
| 2026-05-05 19:56 | 30.16607 | -92.99655 | 33895 ft | 382 kts | 259° |
| 2026-05-05 19:56 | 30.15323 | -93.05339 | 33895 ft | 382 kts | 259° |
| 2026-05-05 19:57 | 30.14182 | -93.11221 | 33897 ft | 379 kts | 263° |
| 2026-05-05 19:57 | 30.13476 | -93.17013 | 33895 ft | 378 kts | 265° |
| 2026-05-05 19:58 | 30.12863 | -93.22685 | 33891 ft | 378 kts | 265° |
| 2026-05-05 19:58 | 30.12260 | -93.28293 | 33893 ft | 378 kts | 265° |
| 2026-05-05 19:59 | 30.11635 | -93.34121 | 33895 ft | 377 kts | 265° |
| 2026-05-05 19:59 | 30.10977 | -93.40203 | 33892 ft | 377 kts | 265° |
| 2026-05-05 20:00 | 30.10314 | -93.46302 | 33891 ft | 377 kts | 265° |
| 2026-05-05 20:00 | 30.09640 | -93.52504 | 33890 ft | 379 kts | 265° |
| 2026-05-05 20:01 | 30.08966 | -93.58672 | 33883 ft | 377 kts | 264° |
| 2026-05-05 20:01 | 30.08287 | -93.64874 | 33885 ft | 378 kts | 265° |
| 2026-05-05 20:02 | 30.07601 | -93.71072 | 33883 ft | 378 kts | 264° |
| 2026-05-05 20:02 | 30.06911 | -93.77320 | 33888 ft | 378 kts | 264° |
| 2026-05-05 20:03 | 30.06220 | -93.83529 | 33888 ft | 379 kts | 264° |
| 2026-05-05 20:03 | 30.05566 | -93.89388 | 33887 ft | 378 kts | 264° |
| 2026-05-05 20:04 | 30.04882 | -93.95487 | 33882 ft | 378 kts | 264° |
| 2026-05-05 20:04 | 30.04240 | -94.01197 | 33881 ft | 377 kts | 264° |
| 2026-05-05 20:05 | 30.03637 | -94.06521 | 33879 ft | 378 kts | 264° |
| 2026-05-05 20:05 | 30.03008 | -94.12073 | 33872 ft | 379 kts | 264° |
| 2026-05-05 20:06 | 30.02287 | -94.18408 | 33872 ft | 379 kts | 264° |
| 2026-05-05 20:06 | 30.01656 | -94.23923 | 33868 ft | 377 kts | 264° |
| 2026-05-05 20:07 | 30.01049 | -94.29204 | 33859 ft | 377 kts | 264° |
| 2026-05-05 20:07 | 30.00432 | -94.34567 | 33857 ft | 378 kts | 263° |
| 2026-05-05 20:08 | 29.99819 | -94.39858 | 33850 ft | 378 kts | 264° |
| 2026-05-05 20:08 | 29.99205 | -94.45155 | 33838 ft | 377 kts | 263° |
| 2026-05-05 20:09 | 29.98585 | -94.50472 | 33833 ft | 378 kts | 264° |
| 2026-05-05 20:09 | 29.97962 | -94.55817 | 33834 ft | 377 kts | 263° |
| 2026-05-05 20:10 | 29.97336 | -94.61141 | 33832 ft | 377 kts | 264° |
| 2026-05-05 20:10 | 29.96713 | -94.66434 | 33833 ft | 377 kts | 263° |
| 2026-05-05 20:11 | 29.96083 | -94.71776 | 33811 ft | 377 kts | 263° |
| 2026-05-05 20:11 | 29.95769 | -94.74442 | 33640 ft | 377 kts | 263° |
| 2026-05-05 20:11 | 29.95451 | -94.77123 | 33432 ft | 376 kts | 263° |
| 2026-05-05 20:11 | 29.95141 | -94.79715 | 33251 ft | 374 kts | 263° |
| 2026-05-05 20:12 | 29.94829 | -94.82355 | 33098 ft | 372 kts | 263° |
| 2026-05-05 20:12 | 29.94516 | -94.84965 | 32947 ft | 371 kts | 263° |
| 2026-05-05 20:12 | 29.94205 | -94.87574 | 32811 ft | 370 kts | 263° |
| 2026-05-05 20:12 | 29.93898 | -94.90160 | 32643 ft | 369 kts | 263° |
| 2026-05-05 20:13 | 29.93585 | -94.92754 | 32457 ft | 370 kts | 263° |
| 2026-05-05 20:13 | 29.93276 | -94.95335 | 32231 ft | 370 kts | 263° |
| 2026-05-05 20:13 | 29.92946 | -94.98066 | 31996 ft | 372 kts | 263° |
| 2026-05-05 20:13 | 29.92606 | -95.00871 | 31754 ft | 376 kts | 263° |
| 2026-05-05 20:14 | 29.92285 | -95.03532 | 31530 ft | 377 kts | 263° |
| 2026-05-05 20:14 | 29.91969 | -95.06161 | 31306 ft | 376 kts | 263° |
| 2026-05-05 20:14 | 29.91601 | -95.09189 | 31051 ft | 375 kts | 263° |
| 2026-05-05 20:14 | 29.91287 | -95.11762 | 30832 ft | 374 kts | 263° |
| 2026-05-05 20:15 | 29.90964 | -95.14420 | 30607 ft | 373 kts | 263° |
| 2026-05-05 20:15 | 29.90651 | -95.16997 | 30388 ft | 372 kts | 263° |
| 2026-05-05 20:15 | 29.90328 | -95.19639 | 30164 ft | 371 kts | 263° |
| 2026-05-05 20:15 | 29.90011 | -95.22243 | 29943 ft | 370 kts | 263° |
| 2026-05-05 20:16 | 29.89694 | -95.24816 | 29724 ft | 370 kts | 263° |
| 2026-05-05 20:16 | 29.89382 | -95.27368 | 29511 ft | 368 kts | 263° |
| 2026-05-05 20:16 | 29.89064 | -95.29957 | 29288 ft | 368 kts | 263° |
| 2026-05-05 20:16 | 29.88746 | -95.32535 | 29065 ft | 366 kts | 263° |
| 2026-05-05 20:17 | 29.88423 | -95.35164 | 28843 ft | 365 kts | 263° |
| 2026-05-05 20:17 | 29.88056 | -95.38132 | 28593 ft | 364 kts | 263° |
| 2026-05-05 20:17 | 29.87719 | -95.40859 | 28360 ft | 362 kts | 263° |
| 2026-05-05 20:17 | 29.87405 | -95.43412 | 28140 ft | 362 kts | 263° |
| 2026-05-05 20:18 | 29.87094 | -95.45915 | 27925 ft | 360 kts | 263° |
| 2026-05-05 20:18 | 29.86779 | -95.48438 | 27706 ft | 359 kts | 263° |
| 2026-05-05 20:18 | 29.86470 | -95.50937 | 27488 ft | 358 kts | 263° |
| 2026-05-05 20:18 | 29.86156 | -95.53444 | 27271 ft | 357 kts | 263° |
| 2026-05-05 20:19 | 29.85840 | -95.55978 | 27052 ft | 356 kts | 263° |
| 2026-05-05 20:19 | 29.85525 | -95.58482 | 26833 ft | 354 kts | 263° |
| 2026-05-05 20:19 | 29.85215 | -95.60960 | 26615 ft | 353 kts | 263° |
| 2026-05-05 20:19 | 29.84911 | -95.63385 | 26402 ft | 352 kts | 263° |
| 2026-05-05 20:20 | 29.84600 | -95.65865 | 26183 ft | 351 kts | 263° |
| 2026-05-05 20:20 | 29.84287 | -95.68350 | 25964 ft | 350 kts | 263° |
| 2026-05-05 20:20 | 29.83980 | -95.70790 | 25747 ft | 350 kts | 263° |
| 2026-05-05 20:20 | 29.83669 | -95.73264 | 25528 ft | 349 kts | 263° |
| 2026-05-05 20:21 | 29.83363 | -95.75683 | 25313 ft | 347 kts | 263° |
| 2026-05-05 20:21 | 29.83050 | -95.78145 | 25092 ft | 346 kts | 263° |
| 2026-05-05 20:21 | 29.82743 | -95.80564 | 24874 ft | 344 kts | 263° |
| 2026-05-05 20:21 | 29.82436 | -95.82980 | 24652 ft | 343 kts | 263° |
| 2026-05-05 20:22 | 29.82130 | -95.85388 | 24435 ft | 343 kts | 263° |
| 2026-05-05 20:22 | 29.81823 | -95.87807 | 24215 ft | 341 kts | 263° |
| 2026-05-05 20:22 | 29.81518 | -95.90204 | 23996 ft | 340 kts | 263° |
| 2026-05-05 20:22 | 29.81200 | -95.92696 | 23838 ft | 338 kts | 263° |
| 2026-05-05 20:23 | 29.80888 | -95.95132 | 23834 ft | 331 kts | 263° |
| 2026-05-05 20:23 | 29.80591 | -95.97450 | 23833 ft | 327 kts | 263° |
| 2026-05-05 20:23 | 29.80290 | -95.99799 | 23829 ft | 327 kts | 263° |
| 2026-05-05 20:23 | 29.79998 | -96.02079 | 23825 ft | 327 kts | 263° |
| 2026-05-05 20:24 | 29.79695 | -96.04431 | 23821 ft | 327 kts | 263° |
| 2026-05-05 20:24 | 29.79394 | -96.06754 | 23817 ft | 327 kts | 262° |
| 2026-05-05 20:24 | 29.79097 | -96.09057 | 23817 ft | 327 kts | 263° |
| 2026-05-05 20:24 | 29.78796 | -96.11378 | 23816 ft | 327 kts | 263° |
| 2026-05-05 20:25 | 29.78496 | -96.13737 | 23810 ft | 327 kts | 264° |
| 2026-05-05 20:25 | 29.78287 | -96.16080 | 23808 ft | 327 kts | 266° |
| 2026-05-05 20:25 | 29.78184 | -96.18451 | 23807 ft | 327 kts | 268° |
| 2026-05-05 20:25 | 29.78194 | -96.20827 | 23790 ft | 329 kts | 271° |
| 2026-05-05 20:26 | 29.78313 | -96.23194 | 23570 ft | 336 kts | 273° |
| 2026-05-05 20:26 | 29.78486 | -96.25595 | 23349 ft | 337 kts | 274° |
| 2026-05-05 20:26 | 29.78663 | -96.27976 | 23130 ft | 336 kts | 274° |
| 2026-05-05 20:26 | 29.78843 | -96.30370 | 22909 ft | 335 kts | 274° |
| 2026-05-05 20:27 | 29.79022 | -96.32754 | 22686 ft | 334 kts | 274° |
| 2026-05-05 20:27 | 29.79203 | -96.35170 | 22463 ft | 334 kts | 274° |
| 2026-05-05 20:27 | 29.79381 | -96.37556 | 22244 ft | 333 kts | 274° |
| 2026-05-05 20:27 | 29.79586 | -96.40331 | 21989 ft | 333 kts | 274° |
| 2026-05-05 20:28 | 29.79795 | -96.43131 | 21731 ft | 333 kts | 274° |
| 2026-05-05 20:28 | 29.80000 | -96.45893 | 21474 ft | 332 kts | 274° |
| 2026-05-05 20:28 | 29.80204 | -96.48671 | 21221 ft | 332 kts | 274° |
| 2026-05-05 20:28 | 29.80382 | -96.51093 | 21001 ft | 331 kts | 274° |
| 2026-05-05 20:29 | 29.80566 | -96.53515 | 20776 ft | 332 kts | 275° |
| 2026-05-05 20:29 | 29.81052 | -96.55937 | 20534 ft | 334 kts | 287° |
| 2026-05-05 20:29 | 29.82008 | -96.58218 | 20297 ft | 339 kts | 297° |
| 2026-05-05 20:29 | 29.83338 | -96.60223 | 19997 ft | 344 kts | 306° |
| 2026-05-05 20:30 | 29.84787 | -96.62048 | 19636 ft | 343 kts | 307° |
| 2026-05-05 20:30 | 29.86265 | -96.63917 | 19264 ft | 343 kts | 307° |
| 2026-05-05 20:30 | 29.87747 | -96.65797 | 18886 ft | 342 kts | 306° |
| 2026-05-05 20:30 | 29.89249 | -96.67705 | 18499 ft | 342 kts | 306° |
| 2026-05-05 20:31 | 29.90697 | -96.69559 | 18115 ft | 341 kts | 307° |
| 2026-05-05 20:31 | 29.92192 | -96.71401 | 17595 ft | 344 kts | 308° |
| 2026-05-05 20:31 | 29.93717 | -96.73247 | 17112 ft | 345 kts | 308° |
| 2026-05-05 20:31 | 29.95287 | -96.75150 | 16654 ft | 344 kts | 308° |
| 2026-05-05 20:32 | 29.96765 | -96.76948 | 16231 ft | 343 kts | 308° |
| 2026-05-05 20:32 | 29.98254 | -96.78770 | 15811 ft | 341 kts | 308° |
| 2026-05-05 20:32 | 29.99683 | -96.80524 | 15412 ft | 340 kts | 308° |
| 2026-05-05 20:32 | 30.01106 | -96.82275 | 15013 ft | 339 kts | 308° |
| 2026-05-05 20:33 | 30.02521 | -96.84014 | 14621 ft | 337 kts | 308° |
| 2026-05-05 20:33 | 30.03891 | -96.85789 | 14221 ft | 333 kts | 303° |
| 2026-05-05 20:33 | 30.05005 | -96.87735 | 13851 ft | 327 kts | 294° |
| 2026-05-05 20:33 | 30.05856 | -96.89896 | 13645 ft | 318 kts | 287° |
| 2026-05-05 20:34 | 30.06500 | -96.91973 | 13306 ft | 316 kts | 285° |
| 2026-05-05 20:34 | 30.07120 | -96.94076 | 12954 ft | 314 kts | 285° |
| 2026-05-05 20:34 | 30.07729 | -96.96157 | 12595 ft | 314 kts | 285° |
| 2026-05-05 20:34 | 30.08343 | -96.98238 | 12227 ft | 313 kts | 285° |
| 2026-05-05 20:35 | 30.08966 | -97.00359 | 11847 ft | 317 kts | 285° |
| 2026-05-05 20:35 | 30.09616 | -97.02589 | 11448 ft | 318 kts | 285° |
| 2026-05-05 20:35 | 30.10282 | -97.04867 | 11043 ft | 317 kts | 285° |
| 2026-05-05 20:35 | 30.10939 | -97.07122 | 10642 ft | 317 kts | 285° |
| 2026-05-05 20:36 | 30.11590 | -97.09345 | 10245 ft | 316 kts | 286° |
| 2026-05-05 20:36 | 30.12226 | -97.11526 | 9851 ft | 314 kts | 285° |
| 2026-05-05 20:36 | 30.12847 | -97.13633 | 9578 ft | 299 kts | 285° |
| 2026-05-05 20:36 | 30.13456 | -97.15670 | 9356 ft | 288 kts | 285° |
| 2026-05-05 20:37 | 30.14046 | -97.17645 | 9139 ft | 282 kts | 285° |
| 2026-05-05 20:37 | 30.14619 | -97.19540 | 8929 ft | 282 kts | 286° |
| 2026-05-05 20:37 | 30.15188 | -97.21418 | 8722 ft | 282 kts | 285° |
| 2026-05-05 20:37 | 30.15795 | -97.23292 | 8509 ft | 283 kts | 291° |
| 2026-05-05 20:38 | 30.16590 | -97.25021 | 8305 ft | 284 kts | 296° |
| 2026-05-05 20:38 | 30.17486 | -97.26760 | 8034 ft | 284 kts | 297° |
| 2026-05-05 20:38 | 30.18378 | -97.28445 | 7723 ft | 283 kts | 298° |
| 2026-05-05 20:38 | 30.19299 | -97.30169 | 7404 ft | 280 kts | 298° |
| 2026-05-05 20:39 | 30.20200 | -97.31850 | 7087 ft | 278 kts | 298° |
| 2026-05-05 20:39 | 30.21108 | -97.33536 | 6770 ft | 277 kts | 298° |
| 2026-05-05 20:39 | 30.21996 | -97.35187 | 6458 ft | 276 kts | 297° |
| 2026-05-05 20:39 | 30.22887 | -97.36832 | 6141 ft | 274 kts | 298° |
| 2026-05-05 20:40 | 30.23778 | -97.38484 | 5825 ft | 272 kts | 298° |
| 2026-05-05 20:40 | 30.24667 | -97.40133 | 5506 ft | 270 kts | 298° |
| 2026-05-05 20:40 | 30.25577 | -97.41824 | 5178 ft | 269 kts | 298° |
| 2026-05-05 20:40 | 30.26464 | -97.43477 | 4852 ft | 267 kts | 298° |
| 2026-05-05 20:41 | 30.27320 | -97.45080 | 4535 ft | 266 kts | 298° |
| 2026-05-05 20:41 | 30.28185 | -97.46703 | 4214 ft | 265 kts | 298° |
| 2026-05-05 20:41 | 30.29044 | -97.48322 | 3893 ft | 264 kts | 298° |
| 2026-05-05 20:41 | 30.29908 | -97.49958 | 3568 ft | 263 kts | 298° |
| 2026-05-05 20:42 | 30.30756 | -97.51562 | 3248 ft | 262 kts | 298° |
| 2026-05-05 20:42 | 30.31590 | -97.53140 | 3009 ft | 258 kts | 298° |
| 2026-05-05 20:42 | 30.32401 | -97.54672 | 2976 ft | 244 kts | 298° |
| 2026-05-05 20:42 | 30.33187 | -97.56154 | 2966 ft | 230 kts | 298° |
| 2026-05-05 20:43 | 30.33919 | -97.57520 | 2972 ft | 226 kts | 298° |
| 2026-05-05 20:43 | 30.34664 | -97.58907 | 3010 ft | 226 kts | 298° |
| 2026-05-05 20:43 | 30.35409 | -97.60293 | 3079 ft | 226 kts | 298° |
| 2026-05-05 20:43 | 30.36156 | -97.61687 | 3024 ft | 225 kts | 298° |
| 2026-05-05 20:44 | 30.36686 | -97.63184 | 2973 ft | 219 kts | 275° |
| 2026-05-05 20:44 | 30.36507 | -97.64722 | 2972 ft | 214 kts | 245° |
| 2026-05-05 20:44 | 30.35702 | -97.65866 | 2976 ft | 211 kts | 215° |
| 2026-05-05 20:44 | 30.34526 | -97.66351 | 2955 ft | 196 kts | 186° |
| 2026-05-05 20:45 | 30.32247 | -97.66167 | 2711 ft | 173 kts | 176° |
| 2026-05-05 20:45 | 30.31116 | -97.66079 | 2496 ft | 167 kts | 179° |
| 2026-05-05 20:45 | 30.30071 | -97.66036 | 2312 ft | 167 kts | 180° |
| 2026-05-05 20:46 | 30.29008 | -97.66009 | 2122 ft | 167 kts | 180° |
| 2026-05-05 20:46 | 30.27937 | -97.65983 | 1930 ft | 166 kts | 180° |
| 2026-05-05 20:46 | 30.26852 | -97.65957 | 1733 ft | 166 kts | 180° |
| 2026-05-05 20:46 | 30.25825 | -97.65929 | 1531 ft | 153 kts | 179° |
| 2026-05-05 20:47 | 30.24912 | -97.65905 | 1335 ft | 140 kts | 179° |
| 2026-05-05 20:47 | 30.24018 | -97.65882 | 1183 ft | 138 kts | 180° |
| 2026-05-05 20:47 | 30.23139 | -97.65860 | 1035 ft | 138 kts | 180° |
| 2026-05-05 20:47 | 30.22267 | -97.65838 | 874 ft | 138 kts | 179° |
| 2026-05-05 20:48 | 30.21400 | -97.65815 | 723 ft | 137 kts | 179° |
| 2026-05-05 20:48 | 30.20547 | -97.65801 | 579 ft | 137 kts | 179° |
| 2026-05-05 20:48 | 30.19716 | -97.65775 | 485 ft | 117 kts | 178° |
| 2026-05-05 20:48 | 30.19109 | -97.65759 | 482 ft | 72 kts | 180° |
| 2026-05-05 20:49 | 30.18836 | -97.65828 | 483 ft | 20 kts | 221° |
| 2026-05-05 20:49 | 30.18864 | -97.65884 | 483 ft | 13 kts | 1° |
| 2026-05-05 20:49 | 30.18951 | -97.65881 | 483 ft | 13 kts | 1° |
| 2026-05-05 20:49 | 30.19041 | -97.65882 | 483 ft | 14 kts | 359° |
| 2026-05-05 20:50 | 30.19132 | -97.65884 | 483 ft | 14 kts | 358° |
| 2026-05-05 20:50 | 30.19222 | -97.65886 | 484 ft | 14 kts | 358° |
| 2026-05-05 20:50 | 30.19311 | -97.65888 | 484 ft | 14 kts | 359° |
| 2026-05-05 20:50 | 30.19403 | -97.65891 | 484 ft | 14 kts | 358° |
| 2026-05-05 20:51 | 30.19496 | -97.65894 | 484 ft | 14 kts | 358° |
| 2026-05-05 20:51 | 30.19587 | -97.65896 | 486 ft | 13 kts | 359° |
| 2026-05-05 20:51 | 30.19672 | -97.65897 | 487 ft | 12 kts | 359° |
| 2026-05-05 20:51 | 30.19755 | -97.65900 | 487 ft | 12 kts | 359° |
| 2026-05-05 20:52 | 30.19828 | -97.65916 | 488 ft | 12 kts | 317° |
| 2026-05-05 20:52 | 30.19846 | -97.65994 | 490 ft | 10 kts | 269° |
| 2026-05-05 20:52 | 30.19845 | -97.66067 | 491 ft | 10 kts | 268° |
| 2026-05-05 20:52 | 30.19843 | -97.66142 | 492 ft | 10 kts | 268° |
| 2026-05-05 20:53 | 30.19841 | -97.66219 | 493 ft | 11 kts | 268° |
| 2026-05-05 20:53 | 30.19840 | -97.66299 | 493 ft | 5 kts | 269° |
| 2026-05-05 20:53 | 30.19840 | -97.66344 | 493 ft | 6 kts | 271° |
| 2026-05-05 20:53 | 30.19869 | -97.66384 | 494 ft | 9 kts | 346° |
| 2026-05-05 20:54 | 30.19928 | -97.66389 | 495 ft | 9 kts | 357° |
| 2026-05-05 20:54 | 30.19993 | -97.66391 | 497 ft | 10 kts | 359° |
| 2026-05-05 20:54 | 30.20062 | -97.66391 | 497 ft | 11 kts | 7° |
| 2026-05-05 20:54 | 30.20119 | -97.66365 | 498 ft | 7 kts | 8° |
| 2026-05-05 20:55 | 30.20157 | -97.66363 | 499 ft | 3 kts | 359° |
| 2026-05-05 20:55 | 30.20168 | -97.66363 | 499 ft | 0 kts | 359° |
| 2026-05-05 20:55 | 30.20172 | -97.66363 | 499 ft | 0 kts | 359° |